Time;durP1;ratioP1;P1;durP2;ratioP2;P2;SDS_P1;SDS_P2;PMS_P1;PMS_P2;Temp;Humidity;BMP_temperature;BMP_pressure;BME280_temperature;BME280_humidity;BME280_pressure;Samples;Min_cycle;Max_cycle;Signal;HPM_P1;HPM_P2
2023/12/06 00:01:21;;;;;;;;;;;;;;;-2.85;38.09;101689.88;5082719;28;19924;-62
2023/12/06 00:03:46;;;;;;;;;;;;;;;-2.87;38.24;101687.31;5074215;28;19946;-62
2023/12/06 00:06:12;;;;;;;;;;;;;;;-2.85;38.28;101695.97;5073435;28;19924;-62
2023/12/06 00:08:37;;;;;;;;;;;;;;;-2.81;38.16;101686.16;5074843;28;19912;-63
2023/12/06 00:11:02;;;;;;;;;;;;;;;-2.79;38.07;101694.81;5078387;28;20353;-63
2023/12/06 00:13:30;;;;;;;;;;;;;;;-2.76;38.39;101684.16;5075904;28;19928;-63
2023/12/06 00:15:55;;;;;;;;;;;;;;;-2.75;37.60;101686.72;5091964;28;20377;-63
2023/12/06 00:18:21;;;;;;;;;;;;;;;-2.73;38.28;101689.25;5077567;28;19916;-62
2023/12/06 00:20:48;;;;;;;;;;;;;;;-2.73;37.58;101694.50;5075812;28;19959;-62
2023/12/06 00:23:14;;;;;;;;;;;;;;;-2.76;38.03;101699.94;5077702;28;19920;-62
2023/12/06 00:25:39;;;;;;;;;;;;;;;-2.77;38.21;101695.59;5072102;28;19920;-64
2023/12/06 00:28:04;;;;;;;;;;;;;;;-2.77;38.53;101693.84;5073932;28;19913;-65
2023/12/06 00:30:30;;;;;;;;;;;;;;;-2.75;38.32;101689.34;5073719;28;20480;-67
2023/12/06 00:32:55;;;;;;;;;;;;;;;-2.70;38.29;101690.88;5077386;28;19917;-66
2023/12/06 00:35:20;;;;;;;;;;;;;;;-2.68;38.61;101694.28;5087157;28;19916;-67
2023/12/06 00:37:46;;;;;;;;;;;;;;;-2.65;39.03;101692.34;5071565;28;19964;-67
2023/12/06 00:40:11;;;;;;;;;;;;;;;-2.60;38.96;101706.13;5072784;28;19913;-67
2023/12/06 00:42:37;;;;;;;;;;;;;;;-2.56;38.81;101699.78;5073246;28;20262;-66
2023/12/06 00:45:02;;;;;;;;;;;;;;;-2.50;38.93;101698.59;5071420;28;19975;-66
2023/12/06 00:47:28;;;;;;;;;;;;;;;-2.46;38.64;101699.31;5072558;28;19927;-67
2023/12/06 00:49:53;;;;;;;;;;;;;;;-2.42;38.43;101696.44;5072214;28;19935;-66
2023/12/06 00:52:18;;;;;;;;;;;;;;;-2.38;38.93;101686.59;5080361;28;19923;-57
2023/12/06 00:54:44;;;;;;;;;;;;;;;-2.34;38.46;101696.91;5082846;28;19912;-57
2023/12/06 00:57:09;;;;;;;;;;;;;;;-2.30;38.32;101702.84;5084078;28;20005;-56
2023/12/06 00:59:34;;;;;;;;;;;;;;;-2.33;37.74;101700.38;5093415;28;19939;-57
2023/12/06 01:02:00;;;;;;;;;;;;;;;-2.29;37.96;101715.06;5093014;28;20384;-58
2023/12/06 01:04:25;;;;;;;;;;;;;;;-2.25;38.27;101711.31;5092818;28;20003;-58
2023/12/06 01:06:50;;;;;;;;;;;;;;;-2.23;37.78;101708.63;5093426;28;19969;-59
2023/12/06 01:09:16;;;;;;;;;;;;;;;-2.22;37.66;101711.19;5093753;28;19912;-59
2023/12/06 01:11:41;;;;;;;;;;;;;;;-2.20;38.62;101709.31;5077726;28;19964;-57
2023/12/06 01:14:06;;;;;;;;;;;;;;;-2.15;38.42;101709.94;5074022;28;19918;-59
2023/12/06 01:16:32;;;;;;;;;;;;;;;-2.11;38.46;101704.53;5075788;28;20294;-59
2023/12/06 01:18:58;;;;;;;;;;;;;;;-2.13;37.77;101703.75;5075254;28;19966;-61
2023/12/06 01:21:23;;;;;;;;;;;;;;;-2.11;38.54;101707.16;5075721;28;19917;-57
2023/12/06 01:23:49;;;;;;;;;;;;;;;-2.08;37.77;101710.47;5087564;28;20284;-56
2023/12/06 01:26:14;;;;;;;;;;;;;;;-2.07;37.67;101709.53;5093864;28;19916;-54
2023/12/06 01:28:39;;;;;;;;;;;;;;;-2.05;38.57;101709.44;5073552;28;19920;-57
2023/12/06 01:31:05;;;;;;;;;;;;;;;-2.00;37.80;101707.44;5073456;28;19913;-58
2023/12/06 01:33:30;;;;;;;;;;;;;;;-1.97;37.80;101704.63;5073127;28;19927;-56
2023/12/06 01:35:56;;;;;;;;;;;;;;;-1.98;38.03;101702.94;5073025;28;20003;-55
2023/12/06 01:38:21;;;;;;;;;;;;;;;-1.94;38.62;101704.47;5073003;28;20388;-59
2023/12/06 01:40:46;;;;;;;;;;;;;;;-1.93;38.08;101700.91;5072980;28;19959;-58
2023/12/06 01:43:12;;;;;;;;;;;;;;;-1.88;38.42;101693.59;5072738;28;19916;-58
2023/12/06 01:45:37;;;;;;;;;;;;;;;-1.85;38.81;101701.34;5072977;28;20019;-57
2023/12/06 01:48:03;;;;;;;;;;;;;;;-1.78;38.07;101699.22;5073282;28;19913;-59
2023/12/06 01:50:28;;;;;;;;;;;;;;;-1.73;38.43;101698.97;5076930;28;19916;-58
2023/12/06 01:52:57;;;;;;;;;;;;;;;-1.72;38.36;101698.06;5093734;28;19916;-58
2023/12/06 01:55:22;;;;;;;;;;;;;;;-1.69;37.99;101687.31;5079037;28;19913;-58
2023/12/06 01:57:48;;;;;;;;;;;;;;;-1.66;38.77;101700.34;5073117;28;20297;-58
2023/12/06 02:00:15;;;;;;;;;;;;;;;-1.64;38.36;101703.72;5076001;28;20387;-57
2023/12/06 02:02:40;;;;;;;;;;;;;;;-1.63;38.00;101690.50;5076620;28;19913;-58
2023/12/06 02:05:07;;;;;;;;;;;;;;;-1.60;38.16;101695.59;5076528;28;20377;-58
2023/12/06 02:07:33;;;;;;;;;;;;;;;-1.58;37.99;101696.34;5076318;28;19923;-57
2023/12/06 02:09:58;;;;;;;;;;;;;;;-1.56;38.78;101694.47;5076772;28;19912;-58
2023/12/06 02:12:23;;;;;;;;;;;;;;;-1.55;38.71;101695.31;5077979;28;20262;-56
2023/12/06 02:14:49;;;;;;;;;;;;;;;-1.52;38.79;101694.28;5096813;28;19912;-59
2023/12/06 02:17:14;;;;;;;;;;;;;;;-1.50;37.86;101690.66;5080388;28;19913;-58
2023/12/06 02:19:40;;;;;;;;;;;;;;;-1.49;38.62;101691.50;5076580;28;19920;-58
2023/12/06 02:22:06;;;;;;;;;;;;;;;-1.45;38.04;101691.25;5076719;28;20365;-58
2023/12/06 02:24:34;;;;;;;;;;;;;;;-1.43;38.18;101688.50;5076441;28;20002;-58
2023/12/06 02:26:59;;;;;;;;;;;;;;;-1.37;37.70;101704.00;5076296;28;19913;-58
2023/12/06 02:29:24;;;;;;;;;;;;;;;-1.36;37.88;101695.16;5076116;28;19912;-59
2023/12/06 02:31:50;;;;;;;;;;;;;;;-1.33;38.04;101702.06;5075765;28;20208;-58
2023/12/06 02:34:19;;;;;;;;;;;;;;;-1.28;38.47;101686.81;5076219;28;20004;-58
2023/12/06 02:36:46;;;;;;;;;;;;;;;-1.27;38.07;101684.09;5075750;28;20003;-57
2023/12/06 02:39:12;;;;;;;;;;;;;;;-1.25;38.51;101684.00;5075918;28;19960;-58
2023/12/06 02:41:37;;;;;;;;;;;;;;;-1.24;37.98;101691.00;5075545;28;20325;-59
2023/12/06 02:44:03;;;;;;;;;;;;;;;-1.23;38.46;101679.50;5075676;28;20269;-58
2023/12/06 02:46:28;;;;;;;;;;;;;;;-1.21;38.15;101690.78;5075817;28;19962;-59
2023/12/06 02:48:53;;;;;;;;;;;;;;;-1.20;37.80;101689.88;5075867;28;20307;-56
2023/12/06 02:51:22;;;;;;;;;;;;;;;-1.18;38.26;101683.56;5085932;28;20066;-55
2023/12/06 02:53:48;;;;;;;;;;;;;;;-1.15;38.46;101689.59;5094873;28;19963;-59
2023/12/06 02:56:13;;;;;;;;;;;;;;;-1.19;38.03;101684.53;5075442;28;19958;-57
2023/12/06 02:58:39;;;;;;;;;;;;;;;-1.15;38.42;101684.31;5075296;28;19960;-57
2023/12/06 03:01:04;;;;;;;;;;;;;;;-1.12;38.02;101686.78;5075272;28;19923;-58
2023/12/06 03:03:29;;;;;;;;;;;;;;;-1.10;38.01;101685.75;5076103;28;19920;-58
2023/12/06 03:05:55;;;;;;;;;;;;;;;-1.08;37.72;101678.59;5075718;28;19913;-58
2023/12/06 03:08:20;;;;;;;;;;;;;;;-1.03;38.22;101678.34;5075369;28;20293;-57
2023/12/06 03:10:45;;;;;;;;;;;;;;;-1.02;38.35;101677.44;5075398;28;20046;-56
2023/12/06 03:13:11;;;;;;;;;;;;;;;-0.98;38.32;101679.78;5075105;28;19931;-59
2023/12/06 03:15:36;;;;;;;;;;;;;;;-1.04;37.51;101669.63;5075472;28;19913;-57
2023/12/06 03:18:01;;;;;;;;;;;;;;;-1.05;37.65;101670.53;5075274;28;20384;-57
2023/12/06 03:20:27;;;;;;;;;;;;;;;-1.04;37.82;101668.75;5075235;28;19917;-58
2023/12/06 03:22:52;;;;;;;;;;;;;;;-1.04;37.73;101666.09;5075064;28;19991;-58
2023/12/06 03:25:21;;;;;;;;;;;;;;;-1.05;38.33;101667.91;5075087;28;19923;-58
2023/12/06 03:27:46;;;;;;;;;;;;;;;-1.03;37.88;101671.28;5075248;28;19913;-58
2023/12/06 03:30:12;;;;;;;;;;;;;;;-1.00;37.65;101667.66;5074732;28;19955;-57
2023/12/06 03:32:37;;;;;;;;;;;;;;;-0.94;38.01;101674.34;5074862;28;20400;-58
2023/12/06 03:35:03;;;;;;;;;;;;;;;-0.92;38.62;101683.84;5074784;28;20293;-57
2023/12/06 03:37:28;;;;;;;;;;;;;;;-0.89;38.05;101678.41;5074669;28;19916;-58
2023/12/06 03:39:54;;;;;;;;;;;;;;;-0.87;38.04;101683.59;5074571;28;19919;-57
2023/12/06 03:42:19;;;;;;;;;;;;;;;-0.90;37.76;101676.72;5074478;28;19919;-58
2023/12/06 03:44:45;;;;;;;;;;;;;;;-0.98;38.33;101661.34;5074465;28;19912;-58
2023/12/06 03:47:10;;;;;;;;;;;;;;;-0.90;38.45;101673.22;5074556;28;19916;-59
2023/12/06 03:49:35;;;;;;;;;;;;;;;-0.87;38.47;101673.91;5074429;28;19912;-57
2023/12/06 03:52:01;;;;;;;;;;;;;;;-0.86;37.29;101672.94;5074420;28;19928;-57
2023/12/06 03:54:26;;;;;;;;;;;;;;;-0.90;37.57;101670.59;5086807;28;19916;-57
2023/12/06 03:56:52;;;;;;;;;;;;;;;-0.92;37.84;101678.59;5082540;28;19912;-57
2023/12/06 03:59:17;;;;;;;;;;;;;;;-0.90;37.60;101673.22;5088588;28;19952;-59
2023/12/06 04:01:44;;;;;;;;;;;;;;;-0.86;37.39;101674.75;5070316;28;20266;-58
2023/12/06 04:04:09;;;;;;;;;;;;;;;-0.81;37.75;101670.91;5054423;28;19920;-59
2023/12/06 04:06:34;;;;;;;;;;;;;;;-0.80;37.85;101669.97;5067645;28;19917;-57
2023/12/06 04:09:00;;;;;;;;;;;;;;;-0.82;38.42;101673.63;5074323;28;19912;-58
2023/12/06 04:11:25;;;;;;;;;;;;;;;-0.83;37.38;101671.94;5073932;28;20261;-56
2023/12/06 04:13:51;;;;;;;;;;;;;;;-0.85;37.89;101677.28;5074232;28;19926;-58
2023/12/06 04:16:17;;;;;;;;;;;;;;;-0.84;37.55;101672.84;5074012;28;19962;-57
2023/12/06 04:18:42;;;;;;;;;;;;;;;-0.87;37.63;101680.97;5074016;28;20019;-59
2023/12/06 04:21:07;;;;;;;;;;;;;;;-0.84;37.39;101675.50;5073361;28;19918;-58
2023/12/06 04:23:33;;;;;;;;;;;;;;;-0.82;37.94;101676.25;5073755;28;19913;-57
2023/12/06 04:25:58;;;;;;;;;;;;;;;-0.81;37.54;101680.59;5073779;28;19920;-59
2023/12/06 04:28:23;;;;;;;;;;;;;;;-0.80;37.64;101683.16;5074021;28;19920;-56
2023/12/06 04:30:49;;;;;;;;;;;;;;;-0.78;37.29;101683.03;5074249;28;19920;-57
2023/12/06 04:33:14;;;;;;;;;;;;;;;-0.79;36.83;101684.84;5073951;28;19920;-55
2023/12/06 04:35:40;;;;;;;;;;;;;;;-0.87;37.49;101686.25;5073689;28;20332;-56
2023/12/06 04:38:07;;;;;;;;;;;;;;;-0.91;37.04;101682.06;5073767;28;19921;-55
2023/12/06 04:40:33;;;;;;;;;;;;;;;-0.94;37.07;101684.91;5073942;28;19913;-59
2023/12/06 04:42:58;;;;;;;;;;;;;;;-0.95;37.40;101683.19;5079723;28;20312;-58
2023/12/06 04:45:23;;;;;;;;;;;;;;;-0.91;37.45;101676.78;5093834;28;19912;-56
2023/12/06 04:47:49;;;;;;;;;;;;;;;-0.94;37.71;101682.25;5094004;28;20361;-59
2023/12/06 04:50:14;;;;;;;;;;;;;;;-0.91;37.24;101682.06;5093527;28;19916;-57
2023/12/06 04:52:40;;;;;;;;;;;;;;;-0.90;37.84;101683.78;5093798;28;19931;-56
2023/12/06 04:55:06;;;;;;;;;;;;;;;-0.92;37.04;101686.50;5081473;28;19919;-57
2023/12/06 04:57:32;;;;;;;;;;;;;;;-0.90;37.23;101691.69;5072196;28;20296;-57
2023/12/06 04:59:57;;;;;;;;;;;;;;;-0.89;37.48;101675.78;5073482;28;19919;-59
2023/12/06 05:02:23;;;;;;;;;;;;;;;-0.88;37.33;101681.91;5071807;28;19959;-58
2023/12/06 05:04:48;;;;;;;;;;;;;;;-0.84;37.34;101675.50;5073226;28;19958;-59
2023/12/06 05:07:13;;;;;;;;;;;;;;;-0.80;37.56;101679.66;5073227;28;19958;-57
2023/12/06 05:09:39;;;;;;;;;;;;;;;-0.80;37.40;101683.16;5073383;28;20385;-56
2023/12/06 05:12:04;;;;;;;;;;;;;;;-0.80;37.32;101680.53;5072902;28;20568;-59
2023/12/06 05:14:30;;;;;;;;;;;;;;;-0.77;37.50;101681.28;5073373;28;19924;-59
2023/12/06 05:16:55;;;;;;;;;;;;;;;-0.79;37.23;101681.34;5073195;28;19971;-58
2023/12/06 05:19:20;;;;;;;;;;;;;;;-0.79;37.37;101678.72;5073312;28;19917;-58
2023/12/06 05:21:46;;;;;;;;;;;;;;;-0.79;37.93;101679.56;5072930;28;19913;-59
2023/12/06 05:24:11;;;;;;;;;;;;;;;-0.77;37.55;101689.19;5072889;28;20354;-57
2023/12/06 05:26:39;;;;;;;;;;;;;;;-0.76;37.20;101682.97;5073333;28;19987;-58
2023/12/06 05:29:04;;;;;;;;;;;;;;;-0.74;37.79;101694.25;5072927;28;20013;-57
2023/12/06 05:31:29;;;;;;;;;;;;;;;-0.73;37.15;101696.81;5072773;28;19920;-57
2023/12/06 05:33:55;;;;;;;;;;;;;;;-0.74;37.09;101695.13;5088744;28;20364;-57
2023/12/06 05:36:20;;;;;;;;;;;;;;;-0.80;37.90;101698.97;5082620;28;20359;-59
2023/12/06 05:38:45;;;;;;;;;;;;;;;-0.81;38.01;101706.97;5076878;28;19921;-58
2023/12/06 05:41:11;;;;;;;;;;;;;;;-0.84;37.24;101701.88;5077377;28;19971;-56
2023/12/06 05:43:36;;;;;;;;;;;;;;;-0.83;37.36;101709.69;5077243;28;20288;-58
2023/12/06 05:46:02;;;;;;;;;;;;;;;-0.80;37.90;101700.75;5077149;28;20285;-58
2023/12/06 05:48:27;;;;;;;;;;;;;;;-0.82;37.95;101705.25;5076762;28;19947;-58
2023/12/06 05:50:53;;;;;;;;;;;;;;;-0.81;37.45;101707.81;5076835;28;20234;-59
2023/12/06 05:53:18;;;;;;;;;;;;;;;-0.77;37.91;101703.22;5076743;28;19934;-56
2023/12/06 05:55:43;;;;;;;;;;;;;;;-0.75;38.57;101696.06;5076157;28;19912;-57
2023/12/06 05:58:09;;;;;;;;;;;;;;;-0.73;37.97;101703.88;5097120;28;19978;-58
2023/12/06 06:00:34;;;;;;;;;;;;;;;-0.71;38.02;101710.75;5096833;28;19912;-58
2023/12/06 06:02:59;;;;;;;;;;;;;;;-0.67;37.91;101704.38;5089124;28;19912;-58
2023/12/06 06:05:25;;;;;;;;;;;;;;;-0.64;38.11;101704.19;5080139;28;19912;-59
2023/12/06 06:07:51;;;;;;;;;;;;;;;-0.60;37.31;101708.34;5076913;28;20381;-58
2023/12/06 06:10:16;;;;;;;;;;;;;;;-0.58;37.24;101713.53;5085343;28;19916;-56
2023/12/06 06:12:42;;;;;;;;;;;;;;;-0.57;37.93;101704.69;5083884;28;19921;-58
2023/12/06 06:15:09;;;;;;;;;;;;;;;-0.58;38.10;101710.88;5077754;28;19920;-55
2023/12/06 06:17:34;;;;;;;;;;;;;;;-0.57;36.99;101711.75;5076517;28;19916;-56
2023/12/06 06:20:00;;;;;;;;;;;;;;;-0.61;37.51;101709.28;5075941;28;19913;-56
2023/12/06 06:22:25;;;;;;;;;;;;;;;-0.61;38.41;101714.56;5078199;28;19912;-58
2023/12/06 06:24:50;;;;;;;;;;;;;;;-0.57;38.44;101711.75;5096556;28;20342;-58
2023/12/06 06:27:16;;;;;;;;;;;;;;;-0.54;38.45;101714.19;5096519;28;19946;-59
2023/12/06 06:29:44;;;;;;;;;;;;;;;-0.56;37.96;101711.66;5096854;28;19912;-59
2023/12/06 06:32:09;;;;;;;;;;;;;;;-0.57;37.47;101709.97;5096626;28;19917;-55
2023/12/06 06:34:35;;;;;;;;;;;;;;;-0.57;37.27;101717.03;5096161;28;19922;-56
2023/12/06 06:37:00;;;;;;;;;;;;;;;-0.56;38.11;101718.72;5074600;28;19913;-58
2023/12/06 06:39:28;;;;;;;;;;;;;;;-0.59;37.69;101717.97;5076247;28;19927;-59
2023/12/06 06:41:53;;;;;;;;;;;;;;;-0.57;38.15;101717.88;5075983;28;19927;-57
2023/12/06 06:44:19;;;;;;;;;;;;;;;-0.54;37.14;101719.47;5075263;28;19912;-60
2023/12/06 06:46:44;;;;;;;;;;;;;;;-0.55;37.28;101720.44;5075642;28;20006;-58
2023/12/06 06:49:09;;;;;;;;;;;;;;;-0.56;37.57;101716.91;5075666;28;19952;-59
2023/12/06 06:51:35;;;;;;;;;;;;;;;-0.51;38.08;101721.94;5087865;28;20320;-59
2023/12/06 06:54:01;;;;;;;;;;;;;;;-0.49;38.04;101722.69;5093163;28;19923;-58
2023/12/06 06:56:27;;;;;;;;;;;;;;;-0.48;37.63;101724.41;5075657;28;19912;-58
2023/12/06 06:58:52;;;;;;;;;;;;;;;-0.48;37.25;101722.63;5075326;28;19918;-57
2023/12/06 07:01:21;;;;;;;;;;;;;;;-0.44;37.84;101720.66;5075228;28;20003;-58
2023/12/06 07:03:46;;;;;;;;;;;;;;;-0.47;37.97;101731.38;5075855;28;19918;-57
2023/12/06 07:06:12;;;;;;;;;;;;;;;-0.51;37.60;101730.69;5075311;28;19999;-57
2023/12/06 07:08:37;;;;;;;;;;;;;;;-0.50;37.73;101729.78;5075453;28;19913;-59
2023/12/06 07:11:04;;;;;;;;;;;;;;;-0.47;37.94;101726.09;5075338;28;19919;-62
2023/12/06 07:13:30;;;;;;;;;;;;;;;-0.42;38.38;101729.31;5080760;28;19920;-60
2023/12/06 07:15:55;;;;;;;;;;;;;;;-0.44;38.96;101726.75;5075343;28;19920;-57
2023/12/06 07:18:20;;;;;;;;;;;;;;;-0.40;37.84;101733.56;5075123;28;20421;-57
2023/12/06 07:20:48;;;;;;;;;;;;;;;-0.39;37.61;101731.75;5075368;28;20312;-59
2023/12/06 07:23:13;;;;;;;;;;;;;;;-0.39;37.35;101747.59;5075312;28;19924;-58
2023/12/06 07:25:39;;;;;;;;;;;;;;;-0.39;37.62;101744.94;5057386;28;19918;-58
2023/12/06 07:28:06;;;;;;;;;;;;;;;-0.40;37.60;101752.03;5075261;28;19912;-58
2023/12/06 07:30:32;;;;;;;;;;;;;;;-0.41;38.26;101750.34;5074756;28;19974;-58
2023/12/06 07:32:57;;;;;;;;;;;;;;;-0.45;36.96;101748.81;5074722;28;19916;-59
2023/12/06 07:35:23;;;;;;;;;;;;;;;-0.44;37.60;101752.31;5074501;28;19962;-57
2023/12/06 07:37:48;;;;;;;;;;;;;;;-0.49;37.62;101749.94;5074847;28;19912;-58
2023/12/06 07:40:13;;;;;;;;;;;;;;;-0.49;37.58;101755.19;5074828;28;19912;-60
2023/12/06 07:42:39;;;;;;;;;;;;;;;-0.47;38.21;101758.59;5074648;28;20010;-57
2023/12/06 07:45:05;;;;;;;;;;;;;;;-0.42;37.92;101756.53;5076511;28;19963;-56
2023/12/06 07:47:32;;;;;;;;;;;;;;;-0.41;38.08;101754.75;5077082;28;20018;-58
2023/12/06 07:49:58;;;;;;;;;;;;;;;-0.37;37.84;101756.28;5075081;28;19913;-56
2023/12/06 07:52:23;;;;;;;;;;;;;;;-0.34;37.89;101758.72;5093799;28;19970;-58
2023/12/06 07:54:48;;;;;;;;;;;;;;;-0.29;38.57;101761.94;5085370;28;19912;-56
2023/12/06 07:57:14;;;;;;;;;;;;;;;-0.31;38.05;101765.63;5073638;28;19912;-59
2023/12/06 07:59:40;;;;;;;;;;;;;;;-0.28;38.05;101765.44;5074464;28;19913;-56
2023/12/06 08:02:06;;;;;;;;;;;;;;;-0.23;37.75;101760.72;5074292;28;20010;-58
2023/12/06 08:04:32;;;;;;;;;;;;;;;-0.27;37.47;101760.06;5073999;28;20338;-59
2023/12/06 08:06:58;;;;;;;;;;;;;;;-0.25;37.60;101767.91;5073914;28;19912;-58
2023/12/06 08:09:26;;;;;;;;;;;;;;;-0.23;37.90;101768.66;5073478;28;19999;-58
2023/12/06 08:11:51;;;;;;;;;;;;;;;-0.24;38.05;101764.34;5073895;28;19924;-54
2023/12/06 08:14:16;;;;;;;;;;;;;;;-0.21;38.15;101778.16;5074354;28;19924;-58
2023/12/06 08:16:42;;;;;;;;;;;;;;;-0.23;37.76;101782.69;5073918;28;19912;-56
2023/12/06 08:19:08;;;;;;;;;;;;;;;-0.20;38.16;101774.59;5073657;28;19913;-57
2023/12/06 08:21:33;;;;;;;;;;;;;;;-0.18;37.18;101782.44;5073773;28;19912;-58
2023/12/06 08:23:59;;;;;;;;;;;;;;;-0.17;37.49;101785.91;5073838;28;19962;-57
2023/12/06 08:26:24;;;;;;;;;;;;;;;-0.13;37.45;101782.16;5073630;28;19913;-58
2023/12/06 08:28:49;;;;;;;;;;;;;;;-0.12;37.36;101782.06;5072409;28;20003;-57
2023/12/06 08:31:15;;;;;;;;;;;;;;;-0.11;37.23;101793.47;5073334;28;19976;-57
2023/12/06 08:33:41;;;;;;;;;;;;;;;-0.11;38.15;101789.06;5073494;28;20316;-55
2023/12/06 08:36:06;;;;;;;;;;;;;;;-0.10;37.97;101788.09;5073655;28;19916;-58
2023/12/06 08:38:32;;;;;;;;;;;;;;;-0.08;37.35;101791.50;5073705;28;19912;-57
2023/12/06 08:40:57;;;;;;;;;;;;;;;-0.03;38.15;101799.16;5073388;28;19969;-56
2023/12/06 08:43:23;;;;;;;;;;;;;;;-0.06;37.38;101794.88;5073758;28;19912;-58
2023/12/06 08:45:48;;;;;;;;;;;;;;;-0.07;38.09;101795.00;5073733;28;20258;-59
2023/12/06 08:48:14;;;;;;;;;;;;;;;-0.06;38.30;101796.69;5073025;28;19913;-54
2023/12/06 08:50:40;;;;;;;;;;;;;;;-0.05;37.54;101801.03;5077744;28;19955;-59
2023/12/06 08:53:05;;;;;;;;;;;;;;;0.01;37.53;101799.81;5092559;28;20012;-58
2023/12/06 08:55:31;;;;;;;;;;;;;;;-0.01;37.58;101792.00;5077719;28;19920;-58
2023/12/06 08:57:56;;;;;;;;;;;;;;;0.01;38.42;101794.53;5078039;28;19924;-59
2023/12/06 09:00:21;;;;;;;;;;;;;;;0.04;38.34;101796.97;5073778;28;19919;-59
2023/12/06 09:02:47;;;;;;;;;;;;;;;0.07;37.73;101804.72;5073415;28;19916;-60
2023/12/06 09:05:12;;;;;;;;;;;;;;;0.12;37.97;101798.22;5073563;28;20254;-56
2023/12/06 09:07:38;;;;;;;;;;;;;;;0.09;37.16;101795.75;5072867;28;20297;-57
2023/12/06 09:10:03;;;;;;;;;;;;;;;0.08;38.32;101799.34;5073547;28;19947;-59
2023/12/06 09:12:29;;;;;;;;;;;;;;;0.11;38.41;101804.47;5073080;28;19981;-56
2023/12/06 09:14:54;;;;;;;;;;;;;;;0.16;38.08;101798.88;5073369;28;19919;-57
2023/12/06 09:17:20;;;;;;;;;;;;;;;0.17;37.12;101801.44;5072678;28;20004;-59
2023/12/06 09:19:45;;;;;;;;;;;;;;;0.17;37.28;101804.09;5072889;28;19958;-60
2023/12/06 09:22:11;;;;;;;;;;;;;;;0.17;37.75;101805.88;5073458;28;19916;-58
2023/12/06 09:24:36;;;;;;;;;;;;;;;0.18;37.42;101811.06;5073500;28;19916;-59
2023/12/06 09:27:02;;;;;;;;;;;;;;;0.22;38.00;101802.94;5073424;28;19913;-58
2023/12/06 09:29:27;;;;;;;;;;;;;;;0.23;37.94;101805.50;5073106;28;19922;-59
2023/12/06 09:31:53;;;;;;;;;;;;;;;0.30;38.13;101811.28;5073083;28;19913;-60
2023/12/06 09:34:19;;;;;;;;;;;;;;;0.34;38.24;101805.69;5073450;28;19919;-60
2023/12/06 09:36:46;;;;;;;;;;;;;;;0.30;37.73;101806.84;5073188;28;19913;-59
2023/12/06 09:39:15;;;;;;;;;;;;;;;0.35;37.22;101809.19;5073227;28;19923;-60
2023/12/06 09:41:42;;;;;;;;;;;;;;;0.35;38.10;101802.13;5073199;28;19917;-60
2023/12/06 09:44:07;;;;;;;;;;;;;;;0.37;38.11;101797.59;5089141;28;19966;-59
2023/12/06 09:46:33;;;;;;;;;;;;;;;0.40;37.62;101806.28;5093332;28;19913;-58
2023/12/06 09:48:58;;;;;;;;;;;;;;;0.43;37.75;101808.69;5093311;28;19918;-59
2023/12/06 09:51:24;;;;;;;;;;;;;;;0.45;39.00;101806.84;5093239;28;19920;-57
2023/12/06 09:53:50;;;;;;;;;;;;;;;0.50;38.43;101804.75;5081667;28;19920;-58
2023/12/06 09:56:18;;;;;;;;;;;;;;;0.51;38.25;101806.44;5077637;28;19912;-58
2023/12/06 09:58:43;;;;;;;;;;;;;;;0.50;37.53;101797.69;5093003;28;20280;-59
2023/12/06 10:01:09;;;;;;;;;;;;;;;0.56;38.46;101802.56;5093341;28;19912;-58
2023/12/06 10:03:35;;;;;;;;;;;;;;;0.60;38.00;101805.88;5072737;28;19913;-59
2023/12/06 10:06:04;;;;;;;;;;;;;;;0.56;38.54;101805.22;5072802;28;19916;-59
2023/12/06 10:08:31;;;;;;;;;;;;;;;0.55;37.49;101800.03;5072966;28;19920;-57
2023/12/06 10:11:09;;;;;;;;;;;;;;;0.57;38.03;101800.78;5072645;28;20138;-59
2023/12/06 10:13:35;;;;;;;;;;;;;;;0.61;37.86;101812.00;5072013;28;20377;-59
2023/12/06 10:16:01;;;;;;;;;;;;;;;0.64;37.81;101811.84;5072796;28;19913;-59
2023/12/06 10:18:27;;;;;;;;;;;;;;;0.66;37.98;101807.28;5072093;28;20057;-58
2023/12/06 10:20:52;;;;;;;;;;;;;;;0.69;37.79;101804.47;5074869;28;19913;-58
2023/12/06 10:23:17;;;;;;;;;;;;;;;0.70;38.58;101795.56;5076120;28;19917;-59
2023/12/06 10:25:47;;;;;;;;;;;;;;;0.73;38.30;101798.88;5075948;28;20047;-57
2023/12/06 10:28:13;;;;;;;;;;;;;;;0.72;37.90;101802.44;5076204;28;19917;-59
2023/12/06 10:30:38;;;;;;;;;;;;;;;0.74;37.82;101797.06;5076175;28;19912;-58
2023/12/06 10:33:05;;;;;;;;;;;;;;;0.78;37.76;101793.31;5082944;28;19916;-59
2023/12/06 10:35:32;;;;;;;;;;;;;;;0.82;37.19;101796.56;5087985;28;19919;-58
2023/12/06 10:37:59;;;;;;;;;;;;;;;0.78;37.71;101801.25;5075802;28;20361;-57
2023/12/06 10:40:26;;;;;;;;;;;;;;;0.73;37.81;101798.03;5075956;28;19912;-56
2023/12/06 10:42:54;;;;;;;;;;;;;;;0.72;37.30;101802.44;5075893;28;19999;-58
2023/12/06 10:45:20;;;;;;;;;;;;;;;0.71;38.26;101784.06;5075954;28;19912;-60
2023/12/06 10:47:47;;;;;;;;;;;;;;;0.77;38.15;101795.09;5075821;28;19962;-58
2023/12/06 10:50:14;;;;;;;;;;;;;;;0.77;37.03;101800.38;5075539;28;19917;-59
2023/12/06 10:52:40;;;;;;;;;;;;;;;0.82;37.28;101791.28;5075708;28;20029;-59
2023/12/06 10:55:06;;;;;;;;;;;;;;;0.75;38.02;101794.34;5075169;28;19917;-59
2023/12/06 10:57:32;;;;;;;;;;;;;;;0.76;37.84;101796.03;5090902;28;20361;-57
2023/12/06 10:59:58;;;;;;;;;;;;;;;0.78;37.62;101785.38;5078609;28;19918;-59
2023/12/06 11:02:23;;;;;;;;;;;;;;;0.80;37.37;101791.41;5065381;28;19928;-58
2023/12/06 11:04:50;;;;;;;;;;;;;;;0.80;37.64;101791.41;5055090;28;19919;-59
2023/12/06 11:07:18;;;;;;;;;;;;;;;0.81;37.71;101793.09;5055458;28;19913;-59
2023/12/06 11:09:50;;;;;;;;;;;;;;;0.83;37.25;101796.50;5055388;28;19923;-58
2023/12/06 11:12:15;;;;;;;;;;;;;;;0.86;37.39;101792.81;5054943;28;19971;-58
2023/12/06 11:15:01;;;;;;;;;;;;;;;0.86;37.01;101791.00;5055365;28;19920;-57
2023/12/06 11:17:26;;;;;;;;;;;;;;;0.87;37.14;101783.94;5071273;28;19995;-58
2023/12/06 11:19:52;;;;;;;;;;;;;;;0.86;36.85;101790.19;5075040;28;20045;-59
2023/12/06 11:22:17;;;;;;;;;;;;;;;0.89;37.44;101792.59;5075828;28;19913;-57
2023/12/06 11:24:43;;;;;;;;;;;;;;;0.89;37.56;101787.31;5095119;28;19981;-57
2023/12/06 11:27:09;;;;;;;;;;;;;;;0.90;37.32;101784.56;5095498;28;19912;-58
2023/12/06 11:29:34;;;;;;;;;;;;;;;0.91;37.69;101778.34;5086392;28;19920;-58
2023/12/06 11:32:00;;;;;;;;;;;;;;;0.99;36.99;101777.84;5074719;28;19920;-59
2023/12/06 11:34:36;;;;;;;;;;;;;;;1.01;37.13;101781.25;5074269;28;19961;-60
2023/12/06 11:37:03;;;;;;;;;;;;;;;1.09;37.71;101778.94;5055125;28;19916;-60
2023/12/06 11:39:28;;;;;;;;;;;;;;;1.09;37.55;101781.59;5054473;28;19916;-59
2023/12/06 11:41:58;;;;;;;;;;;;;;;1.10;37.18;101780.66;5054774;28;19913;-59
2023/12/06 11:44:24;;;;;;;;;;;;;;;1.12;37.14;101776.13;5054754;28;19951;-59
2023/12/06 11:46:52;;;;;;;;;;;;;;;1.14;37.30;101776.84;5069044;28;19972;-60
2023/12/06 11:49:22;;;;;;;;;;;;;;;1.12;37.27;101777.91;5074286;28;19956;-59
2023/12/06 11:51:51;;;;;;;;;;;;;;;1.16;37.32;101776.75;5074649;28;19912;-58
2023/12/06 11:54:17;;;;;;;;;;;;;;;1.17;37.50;101773.19;5073467;28;20345;-58
2023/12/06 11:56:42;;;;;;;;;;;;;;;1.24;37.68;101769.16;5074274;28;19961;-59
2023/12/06 11:59:08;;;;;;;;;;;;;;;1.27;37.14;101773.41;5074051;28;20334;-58
2023/12/06 12:01:34;;;;;;;;;;;;;;;1.31;37.09;101765.16;5071048;28;19913;-59
2023/12/06 12:03:59;;;;;;;;;;;;;;;0.91;37.05;101700.78;5054100;28;19912;-58
2023/12/06 12:06:27;;;;;;;;;;;;;;;1.34;37.08;101769.41;5054097;28;19955;-59
2023/12/06 12:08:52;;;;;;;;;;;;;;;1.30;37.39;101774.06;5054402;28;19913;-59
2023/12/06 12:11:18;;;;;;;;;;;;;;;1.31;37.39;101762.50;5052541;28;20293;-57
2023/12/06 12:13:43;;;;;;;;;;;;;;;1.34;37.70;101767.63;5079399;28;19916;-59
2023/12/06 12:16:10;;;;;;;;;;;;;;;1.37;37.58;101771.84;5086899;28;19978;-59
2023/12/06 12:18:37;;;;;;;;;;;;;;;1.34;37.13;101767.63;5074088;28;20387;-58
2023/12/06 12:21:06;;;;;;;;;;;;;;;1.27;36.68;101771.63;5074098;28;19999;-58
2023/12/06 12:23:31;;;;;;;;;;;;;;;1.29;36.64;101772.34;5074101;28;19916;-58
2023/12/06 12:25:57;;;;;;;;;;;;;;;1.29;36.80;101764.41;5073982;28;19913;-58
2023/12/06 12:28:23;;;;;;;;;;;;;;;1.32;37.75;101769.53;5073999;28;20361;-59
2023/12/06 12:31:05;;;;;;;;;;;;;;;1.31;36.38;101777.56;5073720;28;19999;-59
2023/12/06 12:33:31;;;;;;;;;;;;;;;1.29;37.59;101780.28;5073612;28;20375;-60